Queensport, Canada
Current Conditions -  °F | °C
As of 9:00 PM on Saturday 22 Nov 2014 (Local Time) from CYPD Reporting Station
Overcast Overcast  
Wind Chill: 24°   Ceiling: 5000
Heat Index: 34°   Visibility: 9mi
Dew Point: 23°   Wind: 16mph
Humidity: 65%   Direction: 250°WSW
Pressure: 29.87"   Gusts: 26mph
Location:  45.35°N, 61.25°W
Report Text: CYPD 230100Z AUTO 25014G23KT 9SM OVC050 01/M05 A2987 RMK SLP119
Loading
Personal Weather Stations






























Interactive Weather Map New forecast layout! Learn more

10-Day Weather Forecast

Advertisements
Track Severe Weather on mobile